PWSweather.com
Personal Weather Stations
Station Observations
INORDPAS37
Bondues, BonduesFR 59910

BonduesBonduesFR 59910

Lat: 50.7, Lon: 3.09

Elevation: 102

Station Type: Netatmo

http://bondues.meteoamikuze.com

Latest ConditionsUpdated 11:23:00 PM GMT+01:01 Friday, Dec 14, 2018
Currently Today's Max Today's Min Today's Average
Temperature 32.5°F0.3°C 34.3°F1.3°C 26.1°F-3.3°C 31.0°F-0.6°C
Dew Point 22.1°F-5.5°C 24.8°F-4.0°C 16.3°F-8.7°C 21.0°F-6.1°C
Winds 1.3 mph SSW2.1 kmh SSW 2.5 mph -4.0 kmh - - 1.3 mph 2.1 kmh
Wind Gusts 2.5 mph4.0 kmh 6.9 mph11.1 kmh - -
Humidity 71% 74% 71% 72%
Pressure 30.29 in1025.7 mb 30.29 in1025.7 mb 30.15 in1021.0 mb -
Hour Temp Dew Point Humidity Winds Wind Gusts Pressure Precip Precip Rate Daily Precip Total
11:23 PM 32.5°F0.3°C 22.1°F-5.5°C 71% 1.3 mph SSW2.1 kmh SSW 2.5 mph4.0 kmh 30.29 in1025.7 mb 0.00 in0.0 mm 0.00 in0.0 mm 0.00 in0.0 mm
11:03 PM 32.7°F0.4°C 22.3°F-5.4°C 71% 1.3 mph SSW2.1 kmh SSW 1.8 mph2.9 kmh 30.28 in1025.4 mb 0.00 in0.0 mm 0.00 in0.0 mm 0.00 in0.0 mm
10:43 PM 32.7°F0.4°C 22.3°F-5.4°C 71% 1.3 mph S2.1 kmh S 3.1 mph5.0 kmh 30.27 in1025.1 mb 0.00 in0.0 mm 0.00 in0.0 mm 0.00 in0.0 mm
10:22 PM 32.7°F0.4°C 22.3°F-5.4°C 71% 1.3 mph S2.1 kmh S 2.5 mph4.0 kmh 30.28 in1025.4 mb 0.00 in0.0 mm 0.00 in0.0 mm 0.00 in0.0 mm
10:02 PM 32.7°F0.4°C 22.3°F-5.4°C 71% 1.8 mph SSE2.9 kmh SSE 3.1 mph5.0 kmh 30.27 in1025.1 mb 0.00 in0.0 mm 0.00 in0.0 mm 0.00 in0.0 mm
09:42 PM 32.7°F0.4°C 22.3°F-5.4°C 71% 1.3 mph S2.1 kmh S 2.5 mph4.0 kmh 30.27 in1025.1 mb 0.00 in0.0 mm 0.00 in0.0 mm 0.00 in0.0 mm
09:21 PM 32.7°F0.4°C 22.3°F-5.4°C 71% 0.7 mph SE1.1 kmh SE 1.3 mph2.1 kmh 30.27 in1025.1 mb 0.00 in0.0 mm 0.00 in0.0 mm 0.00 in0.0 mm
09:02 PM 32.7°F0.4°C 22.3°F-5.4°C 71% 1.3 mph S2.1 kmh S 1.8 mph2.9 kmh 30.27 in1025.1 mb 0.00 in0.0 mm 0.00 in0.0 mm 0.00 in0.0 mm
08:41 PM 32.9°F0.5°C 22.5°F-5.3°C 71% 0.7 mph SE1.1 kmh SE 1.3 mph2.1 kmh 30.27 in1025.1 mb 0.00 in0.0 mm 0.00 in0.0 mm 0.00 in0.0 mm
08:21 PM 33.1°F0.6°C 22.6°F-5.2°C 71% 0.7 mph SSE1.1 kmh SSE 1.8 mph2.9 kmh 30.27 in1025.1 mb 0.00 in0.0 mm 0.00 in0.0 mm 0.00 in0.0 mm
08:00 PM 32.9°F0.5°C 22.5°F-5.3°C 71% 1.3 mph SE2.1 kmh SE 2.5 mph4.0 kmh 30.27 in1025.1 mb 0.00 in0.0 mm 0.00 in0.0 mm 0.00 in0.0 mm
07:41 PM 32.9°F0.5°C 22.5°F-5.3°C 71% 0.7 mph SE1.1 kmh SE 1.3 mph2.1 kmh 30.28 in1025.4 mb 0.00 in0.0 mm 0.00 in0.0 mm 0.00 in0.0 mm
07:20 PM 32.9°F0.5°C 22.5°F-5.3°C 71% 0.7 mph SSE1.1 kmh SSE 1.3 mph2.1 kmh 30.28 in1025.4 mb 0.00 in0.0 mm 0.00 in0.0 mm 0.00 in0.0 mm
07:00 PM 32.9°F0.5°C 22.5°F-5.3°C 71% 0.7 mph NE1.1 kmh NE 2.5 mph4.0 kmh 30.28 in1025.4 mb 0.00 in0.0 mm 0.00 in0.0 mm 0.00 in0.0 mm
06:40 PM 32.9°F0.5°C 22.5°F-5.3°C 71% 0.7 mph E1.1 kmh E 2.5 mph4.0 kmh 30.28 in1025.4 mb 0.00 in0.0 mm 0.00 in0.0 mm 0.00 in0.0 mm
06:19 PM 33.1°F0.6°C 22.6°F-5.2°C 71% 1.3 mph SSE2.1 kmh SSE 1.8 mph2.9 kmh 30.28 in1025.4 mb 0.00 in0.0 mm 0.00 in0.0 mm 0.00 in0.0 mm
05:59 PM 33.3°F0.7°C 22.8°F-5.1°C 71% 1.3 mph SE2.1 kmh SE 2.5 mph4.0 kmh 30.27 in1025.1 mb 0.00 in0.0 mm 0.00 in0.0 mm 0.00 in0.0 mm
05:49 PM 33.3°F0.7°C 22.8°F-5.1°C 71% 0.7 mph SE1.1 kmh SE 1.8 mph2.9 kmh 30.28 in1025.4 mb 0.00 in0.0 mm 0.00 in0.0 mm 0.00 in0.0 mm
05:29 PM 33.4°F0.8°C 23.4°F-4.8°C 72% 1.3 mph ESE2.1 kmh ESE 2.5 mph4.0 kmh 30.28 in1025.4 mb 0.00 in0.0 mm 0.00 in0.0 mm 0.00 in0.0 mm
05:09 PM 33.6°F0.9°C 23.5°F-4.7°C 72% 1.3 mph SE2.1 kmh SE 3.1 mph5.0 kmh 30.27 in1025.1 mb 0.00 in0.0 mm 0.00 in0.0 mm 0.00 in0.0 mm
04:48 PM 33.6°F0.9°C 23.5°F-4.7°C 72% 1.8 mph SE2.9 kmh SE 4.9 mph7.9 kmh 30.27 in1025.1 mb 0.00 in0.0 mm 0.00 in0.0 mm 0.00 in0.0 mm
04:28 PM 33.6°F0.9°C 23.5°F-4.7°C 72% 1.3 mph E2.1 kmh E 2.5 mph4.0 kmh 30.27 in1025.1 mb 0.00 in0.0 mm 0.00 in0.0 mm 0.00 in0.0 mm
04:08 PM 33.6°F0.9°C 23.9°F-4.5°C 73% 1.8 mph E2.9 kmh E 3.8 mph6.1 kmh 30.27 in1025.1 mb 0.00 in0.0 mm 0.00 in0.0 mm 0.00 in0.0 mm
03:47 PM 33.6°F0.9°C 23.9°F-4.5°C 73% 1.3 mph E2.1 kmh E 3.1 mph5.0 kmh 30.27 in1025.1 mb 0.00 in0.0 mm 0.00 in0.0 mm 0.00 in0.0 mm
03:27 PM 33.8°F1.0°C 24.1°F-4.4°C 73% 1.3 mph ESE2.1 kmh ESE 3.8 mph6.1 kmh 30.26 in1024.7 mb 0.00 in0.0 mm 0.00 in0.0 mm 0.00 in0.0 mm
03:06 PM 34.0°F1.1°C 24.3°F-4.3°C 73% 1.3 mph SE2.1 kmh SE 2.5 mph4.0 kmh 30.26 in1024.7 mb 0.00 in0.0 mm 0.00 in0.0 mm 0.00 in0.0 mm
02:47 PM 34.2°F1.2°C 24.4°F-4.2°C 73% 1.3 mph SE2.1 kmh SE 3.8 mph6.1 kmh 30.24 in1024.0 mb 0.00 in0.0 mm 0.00 in0.0 mm 0.00 in0.0 mm
02:26 PM 34.2°F1.2°C 24.4°F-4.2°C 73% 1.3 mph E2.1 kmh E 3.1 mph5.0 kmh 30.24 in1024.0 mb 0.00 in0.0 mm 0.00 in0.0 mm 0.00 in0.0 mm
02:06 PM 34.3°F1.3°C 24.6°F-4.1°C 73% 2.5 mph SE4.0 kmh SE 4.9 mph7.9 kmh 30.23 in1023.7 mb 0.00 in0.0 mm 0.00 in0.0 mm 0.00 in0.0 mm
01:45 PM 34.2°F1.2°C 24.8°F-4.0°C 74% 1.8 mph ESE2.9 kmh ESE 3.8 mph6.1 kmh 30.22 in1023.4 mb 0.00 in0.0 mm 0.00 in0.0 mm 0.00 in0.0 mm
01:26 PM 34.0°F1.1°C 24.6°F-4.1°C 74% 2.5 mph E4.0 kmh E 6.9 mph11.1 kmh 30.22 in1023.4 mb 0.00 in0.0 mm 0.00 in0.0 mm 0.00 in0.0 mm
01:05 PM 33.8°F1.0°C 24.4°F-4.2°C 74% 1.3 mph ESE2.1 kmh ESE 3.8 mph6.1 kmh 30.21 in1023.0 mb 0.00 in0.0 mm 0.00 in0.0 mm 0.00 in0.0 mm
12:45 PM 33.4°F0.8°C 24.1°F-4.4°C 74% 1.3 mph SE2.1 kmh SE 3.8 mph6.1 kmh 30.21 in1023.0 mb 0.00 in0.0 mm 0.00 in0.0 mm 0.00 in0.0 mm
12:25 PM 32.9°F0.5°C 23.5°F-4.7°C 74% 1.3 mph E2.1 kmh E 4.3 mph6.9 kmh 30.22 in1023.4 mb 0.00 in0.0 mm 0.00 in0.0 mm 0.00 in0.0 mm
12:04 PM 32.7°F0.4°C 23.4°F-4.8°C 74% 1.3 mph ENE2.1 kmh ENE 2.5 mph4.0 kmh 30.22 in1023.4 mb 0.00 in0.0 mm 0.00 in0.0 mm 0.00 in0.0 mm
11:44 AM 32.4°F0.2°C 23.0°F-5.0°C 74% 1.3 mph NE2.1 kmh NE 3.8 mph6.1 kmh 30.22 in1023.4 mb 0.00 in0.0 mm 0.00 in0.0 mm 0.00 in0.0 mm
11:24 AM 32.0°F0.0°C 22.5°F-5.3°C 73% 1.3 mph NE2.1 kmh NE 3.1 mph5.0 kmh 30.23 in1023.7 mb 0.00 in0.0 mm 0.00 in0.0 mm 0.00 in0.0 mm
11:04 AM 31.8°F-0.1°C 22.3°F-5.4°C 73% 0.7 mph SSE1.1 kmh SSE 1.8 mph2.9 kmh 30.23 in1023.7 mb 0.00 in0.0 mm 0.00 in0.0 mm 0.00 in0.0 mm
10:43 AM 31.5°F-0.3°C 21.9°F-5.6°C 73% 1.3 mph NNE2.1 kmh NNE 2.5 mph4.0 kmh 30.23 in1023.7 mb 0.00 in0.0 mm 0.00 in0.0 mm 0.00 in0.0 mm
10:23 AM 31.1°F-0.5°C 21.6°F-5.8°C 73% 1.8 mph NE2.9 kmh NE 5.6 mph9.0 kmh 30.23 in1023.7 mb 0.00 in0.0 mm 0.00 in0.0 mm 0.00 in0.0 mm
10:00 AM 30.7°F-0.7°C 21.2°F-6.0°C 73% 1.3 mph NE2.1 kmh NE 4.3 mph6.9 kmh 30.23 in1023.7 mb 0.00 in0.0 mm 0.00 in0.0 mm 0.00 in0.0 mm
09:39 AM 30.4°F-0.9°C 20.8°F-6.2°C 73% 1.3 mph NE2.1 kmh NE 3.1 mph5.0 kmh 30.23 in1023.7 mb 0.00 in0.0 mm 0.00 in0.0 mm 0.00 in0.0 mm
09:19 AM 30.0°F-1.1°C 20.5°F-6.4°C 73% 1.3 mph NE2.1 kmh NE 4.3 mph6.9 kmh 30.23 in1023.7 mb 0.00 in0.0 mm 0.00 in0.0 mm 0.00 in0.0 mm
08:59 AM 29.8°F-1.2°C 20.3°F-6.5°C 73% 1.3 mph NE2.1 kmh NE 3.1 mph5.0 kmh 30.22 in1023.4 mb 0.00 in0.0 mm 0.00 in0.0 mm 0.00 in0.0 mm
08:49 AM 29.8°F-1.2°C 20.3°F-6.5°C 73% 1.3 mph NE2.1 kmh NE 3.8 mph6.1 kmh 30.22 in1023.4 mb 0.00 in0.0 mm 0.00 in0.0 mm 0.00 in0.0 mm
08:29 AM 29.5°F-1.4°C 19.9°F-6.7°C 73% 1.3 mph NE2.1 kmh NE 3.8 mph6.1 kmh 30.22 in1023.4 mb 0.00 in0.0 mm 0.00 in0.0 mm 0.00 in0.0 mm
08:02 AM 28.9°F-1.7°C 19.4°F-7.0°C 73% 1.3 mph NE2.1 kmh NE 2.5 mph4.0 kmh 30.21 in1023.0 mb 0.00 in0.0 mm 0.00 in0.0 mm 0.00 in0.0 mm
07:41 AM 28.6°F-1.9°C 18.7°F-7.4°C 72% 0.7 mph NNE1.1 kmh NNE 2.5 mph4.0 kmh 30.20 in1022.7 mb 0.00 in0.0 mm 0.00 in0.0 mm 0.00 in0.0 mm
07:22 AM 28.2°F-2.1°C 18.3°F-7.6°C 72% 0.7 mph NE1.1 kmh NE 1.8 mph2.9 kmh 30.20 in1022.7 mb 0.00 in0.0 mm 0.00 in0.0 mm 0.00 in0.0 mm
07:01 AM 27.3°F-2.6°C 17.6°F-8.0°C 72% 1.8 mph NNE2.9 kmh NNE 4.3 mph6.9 kmh 30.20 in1022.7 mb 0.00 in0.0 mm 0.00 in0.0 mm 0.00 in0.0 mm
06:41 AM 26.8°F-2.9°C 17.1°F-8.3°C 72% 0.7 mph W1.1 kmh W 1.8 mph2.9 kmh 30.19 in1022.4 mb 0.00 in0.0 mm 0.00 in0.0 mm 0.00 in0.0 mm
06:21 AM 26.2°F-3.2°C 16.5°F-8.6°C 72% 0.7 mph E1.1 kmh E 1.3 mph2.1 kmh 30.19 in1022.4 mb 0.00 in0.0 mm 0.00 in0.0 mm 0.00 in0.0 mm
06:01 AM 26.1°F-3.3°C 16.3°F-8.7°C 72% 1.3 mph NNE2.1 kmh NNE 2.5 mph4.0 kmh 30.18 in1022.0 mb 0.00 in0.0 mm 0.00 in0.0 mm 0.00 in0.0 mm
05:41 AM 26.2°F-3.2°C 16.5°F-8.6°C 72% 1.3 mph NNE2.1 kmh NNE 1.8 mph2.9 kmh 30.18 in1022.0 mb 0.00 in0.0 mm 0.00 in0.0 mm 0.00 in0.0 mm
05:21 AM 26.6°F-3.0°C 16.9°F-8.4°C 72% 0.7 mph N1.1 kmh N 1.3 mph2.1 kmh 30.18 in1022.0 mb 0.00 in0.0 mm 0.00 in0.0 mm 0.00 in0.0 mm
05:01 AM 27.0°F-2.8°C 17.2°F-8.2°C 72% 0.7 mph NNE1.1 kmh NNE 1.8 mph2.9 kmh 30.18 in1022.0 mb 0.00 in0.0 mm 0.00 in0.0 mm 0.00 in0.0 mm
04:41 AM 27.1°F-2.7°C 17.4°F-8.1°C 72% 1.3 mph NE2.1 kmh NE 2.5 mph4.0 kmh 30.18 in1022.0 mb 0.00 in0.0 mm 0.00 in0.0 mm 0.00 in0.0 mm
04:20 AM 27.0°F-2.8°C 16.9°F-8.4°C 71% 1.3 mph NNE2.1 kmh NNE 2.5 mph4.0 kmh 30.18 in1022.0 mb 0.00 in0.0 mm 0.00 in0.0 mm 0.00 in0.0 mm
04:01 AM 27.1°F-2.7°C 17.1°F-8.3°C 71% 1.8 mph NE2.9 kmh NE 3.1 mph5.0 kmh 30.17 in1021.7 mb 0.00 in0.0 mm 0.00 in0.0 mm 0.00 in0.0 mm
03:40 AM 27.5°F-2.5°C 17.4°F-8.1°C 71% 1.3 mph NE2.1 kmh NE 3.1 mph5.0 kmh 30.17 in1021.7 mb 0.00 in0.0 mm 0.00 in0.0 mm 0.00 in0.0 mm
03:21 AM 27.7°F-2.4°C 17.6°F-8.0°C 71% 1.3 mph NE2.1 kmh NE 4.3 mph6.9 kmh 30.17 in1021.7 mb 0.00 in0.0 mm 0.00 in0.0 mm 0.00 in0.0 mm
03:01 AM 28.0°F-2.2°C 17.8°F-7.9°C 71% 0.7 mph NE1.1 kmh NE 2.5 mph4.0 kmh 30.18 in1022.0 mb 0.00 in0.0 mm 0.00 in0.0 mm 0.00 in0.0 mm
02:40 AM 28.2°F-2.1°C 18.0°F-7.8°C 71% 1.3 mph NE2.1 kmh NE 3.8 mph6.1 kmh 30.18 in1022.0 mb 0.00 in0.0 mm 0.00 in0.0 mm 0.00 in0.0 mm
02:11 AM 28.4°F-2.0°C 18.1°F-7.7°C 71% 1.3 mph NE2.1 kmh NE 4.3 mph6.9 kmh 30.18 in1022.0 mb 0.00 in0.0 mm 0.00 in0.0 mm 0.00 in0.0 mm
02:00 AM 28.4°F-2.0°C 18.1°F-7.7°C 71% 1.8 mph NE2.9 kmh NE 4.9 mph7.9 kmh 30.17 in1021.7 mb 0.00 in0.0 mm 0.00 in0.0 mm 0.00 in0.0 mm
01:41 AM 28.4°F-2.0°C 18.1°F-7.7°C 71% 1.3 mph NE2.1 kmh NE 3.1 mph5.0 kmh 30.17 in1021.7 mb 0.00 in0.0 mm 0.00 in0.0 mm 0.00 in0.0 mm
01:20 AM 28.8°F-1.8°C 18.5°F-7.5°C 71% 0.7 mph E1.1 kmh E 2.5 mph4.0 kmh 30.17 in1021.7 mb 0.00 in0.0 mm 0.00 in0.0 mm 0.00 in0.0 mm
01:01 AM 29.1°F-1.6°C 18.9°F-7.3°C 71% 1.3 mph NE2.1 kmh NE 3.1 mph5.0 kmh 30.17 in1021.7 mb 0.00 in0.0 mm 0.00 in0.0 mm 0.00 in0.0 mm
12:40 AM 29.7°F-1.3°C 19.4°F-7.0°C 71% 1.3 mph ENE2.1 kmh ENE 4.9 mph7.9 kmh 30.15 in1021.0 mb 0.00 in0.0 mm 0.00 in0.0 mm 0.00 in0.0 mm
12:20 AM 29.8°F-1.2°C 19.6°F-6.9°C 71% 1.8 mph E2.9 kmh E 5.6 mph9.0 kmh 30.16 in1021.3 mb 0.00 in0.0 mm 0.00 in0.0 mm 0.00 in0.0 mm
12:00 AM 29.8°F-1.2°C 19.6°F-6.9°C 71% 1.8 mph ENE2.9 kmh ENE 5.6 mph9.0 kmh 30.15 in1021.0 mb 0.00 in0.0 mm 0.00 in0.0 mm 0.00 in0.0 mm